createdAt,value
2023-05-21T00:01:30.099Z,75.29
2023-05-21T00:03:59.885Z,75.40
2023-05-21T00:06:28.397Z,75.64
2023-05-21T00:08:56.868Z,75.61
2023-05-21T00:11:25.018Z,75.28
2023-05-21T00:13:53.194Z,75.46
2023-05-21T00:16:21.464Z,75.27
2023-05-21T00:18:51.354Z,75.54
2023-05-21T00:21:22.771Z,75.91
2023-05-21T00:23:51.075Z,75.99
2023-05-21T00:26:19.261Z,75.87
2023-05-21T00:28:48.972Z,76.33
2023-05-21T00:31:17.582Z,76.52
2023-05-21T00:33:45.932Z,76.83
2023-05-21T00:36:15.653Z,77.03
2023-05-21T00:38:45.897Z,77.15
2023-05-21T00:41:14.675Z,77.56
2023-05-21T00:43:44.592Z,77.35
2023-05-21T00:46:16.724Z,77.73
2023-05-21T00:48:46.081Z,77.76
2023-05-21T00:51:16.180Z,77.68
2023-05-21T00:53:45.280Z,77.74
2023-05-21T00:56:13.793Z,77.88
2023-05-21T00:58:42.643Z,77.90
2023-05-21T01:01:14.244Z,77.83
2023-05-21T01:03:43.280Z,78.18
2023-05-21T01:06:14.245Z,78.24
2023-05-21T01:08:44.196Z,78.16
2023-05-21T01:11:12.832Z,78.54
2023-05-21T01:13:43.114Z,78.21
2023-05-21T01:16:13.661Z,78.31
2023-05-21T01:18:43.643Z,78.29
2023-05-21T01:21:13.745Z,78.22
2023-05-21T01:23:43.488Z,78.00
2023-05-21T01:26:13.138Z,78.57
2023-05-21T01:28:42.335Z,78.20
2023-05-21T01:31:24.671Z,78.25
2023-05-21T01:33:54.727Z,78.18
2023-05-21T01:36:26.906Z,78.34
2023-05-21T01:39:00.003Z,78.67
2023-05-21T01:41:30.618Z,78.29
2023-05-21T01:43:59.451Z,78.09
2023-05-21T01:46:30.199Z,77.91
2023-05-21T01:48:59.122Z,77.96
2023-05-21T01:51:28.437Z,78.10
2023-05-21T01:53:58.222Z,78.08
2023-05-21T01:56:28.661Z,78.03
2023-05-21T01:58:59.690Z,77.74
2023-05-21T02:01:30.507Z,77.66
2023-05-21T02:03:59.072Z,78.02
2023-05-21T02:06:27.400Z,77.76
2023-05-21T02:08:55.710Z,77.42
2023-05-21T02:11:26.292Z,77.63
2023-05-21T02:13:54.765Z,77.53
2023-05-21T02:16:23.023Z,77.49
2023-05-21T02:18:53.872Z,77.40
2023-05-21T02:21:22.226Z,77.51
2023-05-21T02:23:50.509Z,77.29
2023-05-21T02:26:19.024Z,77.40
2023-05-21T02:28:49.323Z,77.51
2023-05-21T02:31:17.523Z,77.17
2023-05-21T02:33:46.398Z,77.50
2023-05-21T02:36:15.445Z,77.48
2023-05-21T02:38:43.848Z,77.41
2023-05-21T02:41:13.790Z,77.54
2023-05-21T02:43:41.992Z,77.63
2023-05-21T02:46:12.211Z,77.71
2023-05-21T02:48:40.861Z,77.47
2023-05-21T02:51:09.247Z,77.55
2023-05-21T02:53:37.451Z,77.71
2023-05-21T02:56:06.538Z,77.71
2023-05-21T02:58:34.775Z,77.89
2023-05-21T03:01:02.938Z,77.89
2023-05-21T03:03:33.144Z,78.10
2023-05-21T03:06:01.581Z,78.08
2023-05-21T03:08:29.741Z,78.33
2023-05-21T03:10:58.135Z,78.50
2023-05-21T03:13:26.613Z,78.70
2023-05-21T03:15:56.406Z,78.56
2023-05-21T03:18:24.709Z,78.36
2023-05-21T03:20:55.650Z,78.43
2023-05-21T03:23:24.478Z,78.62
2023-05-21T03:25:53.217Z,78.25
2023-05-21T03:28:22.681Z,78.61
2023-05-21T03:30:52.236Z,78.66
2023-05-21T03:33:32.725Z,78.69
2023-05-21T03:36:04.128Z,78.65
2023-05-21T03:38:37.145Z,79.17
2023-05-21T03:41:07.229Z,78.77
2023-05-21T03:43:36.008Z,78.93
2023-05-21T03:46:04.553Z,78.98
2023-05-21T03:48:56.025Z,79.04
2023-05-21T03:51:27.591Z,78.78
2023-05-21T03:53:56.391Z,78.97
2023-05-21T03:56:24.589Z,79.11
2023-05-21T03:58:53.123Z,79.13
2023-05-21T04:01:21.683Z,79.22
2023-05-21T04:03:52.343Z,79.42
2023-05-21T04:06:23.894Z,79.25
2023-05-21T04:08:53.488Z,79.30
2023-05-21T04:11:22.600Z,79.52
2023-05-21T04:13:51.770Z,79.67
2023-05-21T04:16:20.106Z,79.85
2023-05-21T04:18:48.728Z,79.80
2023-05-21T04:21:17.952Z,79.91
2023-05-21T04:23:46.591Z,80.09
2023-05-21T04:26:29.598Z,80.12
2023-05-21T04:28:59.535Z,80.20
2023-05-21T04:31:28.012Z,80.82
2023-05-21T04:33:56.320Z,81.10
2023-05-21T04:36:24.651Z,81.75
2023-05-21T04:38:53.554Z,81.77
2023-05-21T04:41:21.706Z,81.92
2023-05-21T04:43:55.437Z,82.18
2023-05-21T04:46:27.419Z,82.53
2023-05-21T04:48:56.116Z,83.60
2023-05-21T04:51:26.848Z,83.59
2023-05-21T04:53:55.208Z,83.71
2023-05-21T04:56:23.648Z,83.58
2023-05-21T04:58:54.241Z,83.91
2023-05-21T05:01:24.007Z,83.69
2023-05-21T05:03:52.767Z,83.69
2023-05-21T05:06:21.550Z,83.74
2023-05-21T05:08:50.863Z,83.70
2023-05-21T05:11:19.508Z,83.12
2023-05-21T05:13:48.480Z,84.01
2023-05-21T05:16:25.012Z,83.40
2023-05-21T05:18:54.007Z,83.46
2023-05-21T05:21:24.117Z,84.60
2023-05-21T05:23:52.794Z,84.69
2023-05-21T05:26:25.552Z,85.35
2023-05-21T05:28:53.822Z,85.16
2023-05-21T05:31:23.638Z,85.40
2023-05-21T05:33:53.492Z,85.34
2023-05-21T05:36:24.294Z,85.37
2023-05-21T05:38:54.437Z,85.22
2023-05-21T05:41:24.221Z,84.73
2023-05-21T05:43:52.401Z,84.30
2023-05-21T05:46:25.891Z,84.27
2023-05-21T05:48:54.136Z,83.60
2023-05-21T05:51:22.344Z,83.30
2023-05-21T05:53:51.064Z,83.23
2023-05-21T05:56:19.244Z,80.63
2023-05-21T05:58:47.748Z,77.52
2023-05-21T06:01:17.835Z,76.09
2023-05-21T06:03:48.175Z,73.15
2023-05-21T06:06:19.201Z,72.32
2023-05-21T06:08:47.760Z,71.14
2023-05-21T06:11:19.305Z,69.35
2023-05-21T06:13:47.623Z,67.78
2023-05-21T06:16:18.703Z,63.55
2023-05-21T06:18:48.563Z,63.31
2023-05-21T06:21:16.864Z,62.19
2023-05-21T06:23:46.340Z,59.55
2023-05-21T06:26:14.607Z,58.31
2023-05-21T06:28:43.298Z,56.08
2023-05-21T06:31:13.765Z,53.81
2023-05-21T06:33:43.832Z,53.64
2023-05-21T06:36:14.093Z,51.64
2023-05-21T06:38:42.797Z,49.20
2023-05-21T06:41:11.230Z,48.10
2023-05-21T06:43:55.908Z,46.98
2023-05-21T06:46:42.875Z,50.21
2023-05-21T06:49:14.517Z,47.32
2023-05-21T06:51:45.773Z,48.99
2023-05-21T06:54:15.351Z,45.70
2023-05-21T06:56:44.042Z,46.62
2023-05-21T06:59:12.298Z,47.83
2023-05-21T07:01:42.829Z,46.18
2023-05-21T07:04:11.551Z,44.62
2023-05-21T07:06:41.175Z,44.20
2023-05-21T07:09:11.269Z,45.73
2023-05-21T07:11:40.449Z,44.18
2023-05-21T07:14:10.104Z,43.04
2023-05-21T07:16:39.489Z,42.23
2023-05-21T07:19:08.170Z,41.99
2023-05-21T07:21:36.575Z,44.14
2023-05-21T07:24:07.783Z,43.70
2023-05-21T07:26:41.307Z,41.13
2023-05-21T07:29:10.117Z,42.31
2023-05-21T07:31:38.669Z,41.67
2023-05-21T07:34:07.905Z,41.21
2023-05-21T07:36:37.091Z,41.05
2023-05-21T07:39:05.450Z,38.96
2023-05-21T07:41:33.925Z,39.83
2023-05-21T07:44:08.290Z,41.22
2023-05-21T07:46:40.624Z,42.59
2023-05-21T07:49:16.647Z,41.65
2023-05-21T07:51:46.318Z,43.02
2023-05-21T07:54:14.614Z,42.53
2023-05-21T07:56:42.918Z,41.80
2023-05-21T07:59:20.335Z,39.66
2023-05-21T08:01:48.684Z,38.42
2023-05-21T08:04:17.368Z,37.26
2023-05-21T08:06:45.745Z,37.29
2023-05-21T08:09:14.064Z,38.03
2023-05-21T08:11:43.006Z,37.42
2023-05-21T08:14:11.784Z,36.96
2023-05-21T08:16:41.622Z,36.29
2023-05-21T08:19:10.239Z,37.03
2023-05-21T08:21:42.117Z,35.41
2023-05-21T08:24:15.065Z,36.66
2023-05-21T08:26:45.038Z,37.02
2023-05-21T08:29:13.941Z,35.23
2023-05-21T08:31:44.865Z,35.25
2023-05-21T08:34:13.156Z,34.77
2023-05-21T08:36:50.086Z,34.70
2023-05-21T08:39:47.706Z,35.27
2023-05-21T08:42:35.778Z,34.52
2023-05-21T08:45:07.822Z,34.81
2023-05-21T08:47:38.238Z,35.80
2023-05-21T08:50:10.761Z,35.54
2023-05-21T08:52:39.558Z,34.98
2023-05-21T08:55:09.395Z,35.18
2023-05-21T08:57:39.405Z,35.10
2023-05-21T09:00:09.092Z,34.07
2023-05-21T09:02:40.967Z,35.24
2023-05-21T09:05:10.232Z,37.17
2023-05-21T09:07:44.968Z,37.12
2023-05-21T09:10:28.261Z,36.07
2023-05-21T09:12:57.527Z,34.68
2023-05-21T09:15:28.214Z,35.74
2023-05-21T09:17:59.062Z,35.39
2023-05-21T09:20:56.798Z,35.74
2023-05-21T09:23:30.068Z,34.76
2023-05-21T09:25:58.919Z,35.75
2023-05-21T09:28:32.857Z,36.67
2023-05-21T09:31:05.046Z,35.03
2023-05-21T09:33:34.865Z,34.40
2023-05-21T09:36:03.775Z,34.95
2023-05-21T09:38:35.430Z,34.41
2023-05-21T09:41:06.633Z,35.42
2023-05-21T09:43:36.300Z,35.87
2023-05-21T09:46:05.776Z,36.32
2023-05-21T09:48:37.983Z,34.38
2023-05-21T09:51:14.338Z,34.68
2023-05-21T09:53:49.734Z,33.97
2023-05-21T09:56:20.426Z,34.84
2023-05-21T09:58:49.682Z,35.12
2023-05-21T10:01:18.091Z,34.24
2023-05-21T10:03:51.654Z,33.61
2023-05-21T10:06:21.057Z,34.34
2023-05-21T10:08:53.527Z,34.78
2023-05-21T10:11:24.983Z,35.45
2023-05-21T10:13:58.819Z,36.53
2023-05-21T10:16:27.257Z,35.87
2023-05-21T10:18:58.215Z,36.25
2023-05-21T10:21:28.068Z,36.13
2023-05-21T10:23:57.670Z,37.11
2023-05-21T10:26:26.565Z,37.86
2023-05-21T10:28:57.453Z,36.61
2023-05-21T10:31:27.765Z,35.68
2023-05-21T10:33:58.654Z,35.60
2023-05-21T10:36:32.209Z,35.85
2023-05-21T10:39:03.155Z,35.02
2023-05-21T10:41:40.808Z,33.48
2023-05-21T10:44:18.065Z,35.44
2023-05-21T10:47:10.349Z,36.11
2023-05-21T10:49:53.214Z,38.09
2023-05-21T10:52:36.612Z,37.70
2023-05-21T10:55:18.965Z,38.27
2023-05-21T10:58:13.798Z,38.62
2023-05-21T11:00:43.830Z,39.01
2023-05-21T11:03:14.328Z,40.24
2023-05-21T11:05:53.552Z,41.22
2023-05-21T11:08:26.465Z,41.17
2023-05-21T11:10:55.963Z,41.05
2023-05-21T11:13:24.232Z,40.19
2023-05-21T11:16:08.078Z,40.30
2023-05-21T11:19:00.220Z,40.82
2023-05-21T11:21:32.406Z,40.48
2023-05-21T11:24:06.545Z,41.43
2023-05-21T11:27:07.182Z,41.32
2023-05-21T11:29:41.707Z,40.55
2023-05-21T11:32:11.790Z,39.96
2023-05-21T11:34:41.985Z,42.21
2023-05-21T11:37:30.266Z,42.34
2023-05-21T11:40:00.148Z,41.52
2023-05-21T11:42:33.611Z,41.68
2023-05-21T11:45:03.759Z,40.74
2023-05-21T11:47:33.974Z,40.53
2023-05-21T11:50:03.551Z,41.02
2023-05-21T11:52:33.902Z,39.75
2023-05-21T11:55:02.457Z,40.36
2023-05-21T11:57:31.976Z,42.05
2023-05-21T12:00:02.659Z,43.67
2023-05-21T12:02:45.326Z,42.08
2023-05-21T12:05:13.764Z,42.54
2023-05-21T12:07:44.020Z,42.90
2023-05-21T12:10:13.587Z,43.87
2023-05-21T12:12:53.929Z,43.39
2023-05-21T12:15:24.575Z,42.75
2023-05-21T12:17:54.339Z,42.94
2023-05-21T12:20:25.017Z,43.28
2023-05-21T12:22:55.701Z,43.51
2023-05-21T12:25:24.252Z,43.55
2023-05-21T12:27:57.994Z,41.95
2023-05-21T12:30:27.428Z,42.75
2023-05-21T12:32:59.713Z,42.82
2023-05-21T12:35:28.573Z,43.26
2023-05-21T12:38:03.690Z,43.23
2023-05-21T12:40:40.631Z,42.92
2023-05-21T12:43:09.336Z,42.98
2023-05-21T12:45:40.767Z,43.37
2023-05-21T12:48:09.638Z,42.86
2023-05-21T12:50:40.978Z,42.90
2023-05-21T12:53:12.524Z,44.05
2023-05-21T12:55:41.667Z,43.66
2023-05-21T12:58:10.072Z,42.60
2023-05-21T13:00:38.953Z,43.48
2023-05-21T13:03:07.668Z,43.74
2023-05-21T13:05:36.701Z,44.31
2023-05-21T13:08:05.299Z,43.96
2023-05-21T13:10:35.429Z,44.07
2023-05-21T13:13:04.059Z,45.24
2023-05-21T13:15:33.122Z,43.91
2023-05-21T13:18:01.926Z,44.39
2023-05-21T13:20:30.703Z,46.38
2023-05-21T13:22:59.011Z,45.97
2023-05-21T13:25:29.714Z,46.19
2023-05-21T13:28:02.835Z,47.65
2023-05-21T13:30:31.322Z,45.80
2023-05-21T13:32:59.617Z,46.34
2023-05-21T13:35:27.937Z,46.41
2023-05-21T13:37:56.160Z,46.81
2023-05-21T13:40:24.573Z,46.81
2023-05-21T13:42:53.375Z,48.63
2023-05-21T13:45:29.258Z,48.70
2023-05-21T13:47:58.284Z,48.42
2023-05-21T13:50:26.964Z,47.37
2023-05-21T13:52:55.260Z,48.80
2023-05-21T13:55:23.660Z,48.68
2023-05-21T13:57:51.995Z,46.08
2023-05-21T14:00:20.254Z,48.54
2023-05-21T14:02:50.326Z,50.57
2023-05-21T14:05:19.101Z,50.93
2023-05-21T14:07:48.586Z,49.89
2023-05-21T14:10:17.125Z,49.55
2023-05-21T14:12:46.647Z,48.97
2023-05-21T14:15:15.357Z,49.08
2023-05-21T14:17:43.786Z,49.59
2023-05-21T14:20:14.138Z,50.03
2023-05-21T14:22:42.515Z,48.93
2023-05-21T14:25:11.098Z,49.40
2023-05-21T14:27:39.427Z,48.98
2023-05-21T14:30:08.937Z,49.92
2023-05-21T14:32:37.214Z,50.10
2023-05-21T14:35:06.546Z,50.22
2023-05-21T14:37:36.402Z,49.94
2023-05-21T14:40:05.630Z,50.24
2023-05-21T14:42:33.757Z,50.59
2023-05-21T14:45:17.352Z,50.54
2023-05-21T14:47:47.795Z,50.50
2023-05-21T14:50:17.604Z,50.94
2023-05-21T14:52:47.361Z,50.66
2023-05-21T14:55:16.981Z,51.46
2023-05-21T14:57:45.533Z,52.11
2023-05-21T15:00:14.511Z,51.94
2023-05-21T15:02:43.189Z,52.48
2023-05-21T15:05:11.634Z,52.13
2023-05-21T15:07:39.932Z,53.50
2023-05-21T15:10:10.867Z,52.63
2023-05-21T15:12:39.354Z,52.61
2023-05-21T15:15:08.381Z,52.69
2023-05-21T15:17:37.203Z,52.83
2023-05-21T15:20:07.296Z,51.37
2023-05-21T15:22:36.221Z,52.26
2023-05-21T15:25:05.680Z,51.68
2023-05-21T15:27:36.026Z,51.94
2023-05-21T15:30:05.122Z,51.75
2023-05-21T15:32:33.552Z,51.96
2023-05-21T15:35:02.288Z,52.72
2023-05-21T15:37:32.403Z,52.40
2023-05-21T15:40:01.024Z,52.47
2023-05-21T15:42:31.914Z,52.46
2023-05-21T15:45:01.703Z,52.82
2023-05-21T15:47:30.351Z,53.44
2023-05-21T15:50:00.532Z,52.78
2023-05-21T15:52:28.871Z,53.85
2023-05-21T15:54:58.146Z,54.02
2023-05-21T15:57:26.645Z,54.64
2023-05-21T15:59:54.902Z,54.80
2023-05-21T16:02:24.667Z,55.21
2023-05-21T16:04:53.749Z,55.15
2023-05-21T16:07:24.197Z,54.82
2023-05-21T16:09:52.526Z,54.82
2023-05-21T16:12:21.049Z,54.34
2023-05-21T16:14:50.939Z,54.69
2023-05-21T16:17:19.806Z,54.18
2023-05-21T16:19:49.782Z,53.41
2023-05-21T16:22:17.924Z,53.77
2023-05-21T16:24:46.313Z,54.48
2023-05-21T16:27:15.150Z,54.34
2023-05-21T16:29:43.940Z,54.32
2023-05-21T16:32:14.088Z,54.56
2023-05-21T16:34:42.691Z,54.32
2023-05-21T16:37:12.370Z,54.54
2023-05-21T16:39:40.926Z,54.76
2023-05-21T16:42:09.283Z,54.87
2023-05-21T16:44:41.931Z,55.20
2023-05-21T16:56:56.718Z,56.21
2023-05-21T17:03:37.396Z,56.12
2023-05-21T17:09:56.629Z,55.97
2023-05-21T17:12:33.956Z,56.21
2023-05-21T17:15:29.798Z,56.43
2023-05-21T17:18:05.224Z,56.73
2023-05-21T17:23:45.714Z,56.95
2023-05-21T17:30:00.349Z,57.35
2023-05-21T17:32:32.761Z,57.24
2023-05-21T17:35:01.149Z,57.67
2023-05-21T17:37:29.989Z,58.00
2023-05-21T17:39:58.909Z,58.28
2023-05-21T17:42:27.212Z,58.42
2023-05-21T17:44:55.880Z,58.83
2023-05-21T17:47:24.429Z,58.98
2023-05-21T17:49:54.196Z,58.71
2023-05-21T17:52:22.863Z,58.35
2023-05-21T17:54:51.041Z,58.15
2023-05-21T17:57:20.349Z,58.49
2023-05-21T17:59:48.582Z,59.13
2023-05-21T18:02:16.789Z,58.81
2023-05-21T18:04:45.259Z,58.60
2023-05-21T18:07:16.210Z,58.97
2023-05-21T18:09:44.552Z,58.80
2023-05-21T18:12:12.754Z,59.09
2023-05-21T18:14:40.975Z,59.45
2023-05-21T18:17:09.721Z,59.95
2023-05-21T18:19:38.409Z,59.99
2023-05-21T18:22:06.963Z,60.39
2023-05-21T18:24:38.375Z,60.67
2023-05-21T18:27:07.405Z,60.58
2023-05-21T18:29:36.792Z,60.81
2023-05-21T18:32:05.395Z,60.93
2023-05-21T18:34:33.635Z,61.36
2023-05-21T18:37:02.331Z,61.39
2023-05-21T18:39:30.531Z,61.64
2023-05-21T18:42:11.996Z,61.89
2023-05-21T18:44:42.249Z,61.81
2023-05-21T18:47:11.813Z,62.21
2023-05-21T18:49:40.439Z,62.75
2023-05-21T18:52:09.221Z,62.64
2023-05-21T18:54:37.537Z,63.08
2023-05-21T18:57:07.698Z,63.24
2023-05-21T18:59:36.443Z,63.48
2023-05-21T19:02:05.751Z,63.42
2023-05-21T19:04:34.456Z,63.71
2023-05-21T19:07:04.018Z,63.79
2023-05-21T19:09:32.291Z,64.16
2023-05-21T19:12:01.675Z,64.40
2023-05-21T19:14:31.326Z,64.63
2023-05-21T19:16:59.562Z,64.94
2023-05-21T19:19:28.050Z,65.18
2023-05-21T19:21:56.657Z,65.60
2023-05-21T19:24:25.438Z,65.65
2023-05-21T19:26:53.760Z,65.20
2023-05-21T19:29:22.844Z,65.05
2023-05-21T19:31:56.149Z,65.42
2023-05-21T19:34:26.763Z,65.40
2023-05-21T19:36:55.221Z,65.67
2023-05-21T19:39:23.482Z,65.76
2023-05-21T19:41:51.776Z,65.71
2023-05-21T19:44:20.179Z,65.72
2023-05-21T19:46:49.172Z,66.04
2023-05-21T19:49:20.084Z,66.52
2023-05-21T19:51:49.575Z,66.77
2023-05-21T19:54:18.984Z,67.87
2023-05-21T19:56:47.299Z,67.79
2023-05-21T19:59:15.820Z,69.97
2023-05-21T20:01:44.440Z,70.72
2023-05-21T20:04:19.270Z,71.27
2023-05-21T20:06:53.358Z,72.35
2023-05-21T20:09:21.611Z,72.69
2023-05-21T20:11:50.137Z,73.32
2023-05-21T20:14:18.399Z,71.53
2023-05-21T20:16:48.517Z,71.10
2023-05-21T20:19:16.894Z,71.17
2023-05-21T20:21:45.095Z,70.74
2023-05-21T20:24:15.226Z,70.82
2023-05-21T20:26:45.053Z,70.92
2023-05-21T20:29:13.348Z,70.76
2023-05-21T20:31:53.932Z,70.79
2023-05-21T20:34:35.155Z,71.25
2023-05-21T20:37:22.937Z,71.11
2023-05-21T20:40:00.207Z,71.37
2023-05-21T20:42:34.325Z,71.63
2023-05-21T20:45:03.384Z,71.38
2023-05-21T20:47:32.117Z,71.19
2023-05-21T20:50:02.860Z,71.11
2023-05-21T20:52:31.149Z,71.42
2023-05-21T20:55:01.027Z,71.67
2023-05-21T20:57:31.431Z,71.70
2023-05-21T21:00:02.997Z,71.96
2023-05-21T21:02:32.909Z,71.82
2023-05-21T21:05:02.795Z,72.02
2023-05-21T21:07:33.634Z,71.98
2023-05-21T21:10:03.585Z,72.03
2023-05-21T21:12:32.364Z,72.03
2023-05-21T21:15:00.687Z,72.13
2023-05-21T21:17:29.027Z,72.24
2023-05-21T21:19:57.240Z,72.09
2023-05-21T21:22:25.867Z,72.20
2023-05-21T21:24:54.037Z,72.54
2023-05-21T21:27:23.801Z,72.56
2023-05-21T21:29:52.141Z,72.70
2023-05-21T21:32:21.409Z,72.71
2023-05-21T21:34:49.847Z,72.89
2023-05-21T21:37:19.735Z,72.93
2023-05-21T21:39:48.315Z,72.71
2023-05-21T21:42:16.671Z,72.83
2023-05-21T21:44:46.439Z,72.89
2023-05-21T21:47:14.816Z,72.72
2023-05-21T21:49:43.412Z,72.85
2023-05-21T21:52:12.773Z,72.45
2023-05-21T21:54:42.103Z,72.67
2023-05-21T21:57:10.444Z,72.67
2023-05-21T21:59:40.249Z,72.83
2023-05-21T22:02:11.052Z,72.74
2023-05-21T22:04:39.405Z,72.97
2023-05-21T22:07:11.046Z,72.98
2023-05-21T22:09:39.645Z,72.85
2023-05-21T22:12:09.239Z,72.70
2023-05-21T22:14:37.539Z,73.01
2023-05-21T22:17:08.406Z,73.06
2023-05-21T22:19:38.992Z,72.74
2023-05-21T22:22:07.426Z,72.90
2023-05-21T22:24:35.885Z,72.91
2023-05-21T22:27:04.887Z,73.05
2023-05-21T22:29:33.128Z,72.55
2023-05-21T22:32:01.606Z,72.85
2023-05-21T22:34:30.321Z,72.62
2023-05-21T22:37:00.144Z,72.64
2023-05-21T22:39:28.513Z,72.76
2023-05-21T22:41:56.878Z,72.80
2023-05-21T22:44:25.482Z,73.04
2023-05-21T22:46:56.473Z,72.85
2023-05-21T22:49:25.079Z,73.28
2023-05-21T22:51:54.381Z,73.40
2023-05-21T22:54:24.056Z,73.88
2023-05-21T22:56:52.547Z,73.85
2023-05-21T22:59:21.300Z,74.42
2023-05-21T23:01:49.845Z,74.38
2023-05-21T23:04:19.486Z,74.57
2023-05-21T23:06:48.936Z,74.57
2023-05-21T23:09:17.185Z,74.93
2023-05-21T23:11:46.812Z,74.64
2023-05-21T23:14:15.128Z,74.65
2023-05-21T23:16:44.228Z,74.60
2023-05-21T23:19:13.158Z,74.80
2023-05-21T23:21:41.620Z,74.92
2023-05-21T23:24:11.471Z,74.95
2023-05-21T23:26:39.689Z,74.88
2023-05-21T23:29:09.427Z,75.18
2023-05-21T23:31:37.945Z,75.17
2023-05-21T23:34:06.569Z,74.89
2023-05-21T23:36:34.819Z,74.91
2023-05-21T23:39:03.281Z,75.36
2023-05-21T23:41:31.515Z,74.91
2023-05-21T23:43:59.706Z,75.40
2023-05-21T23:46:29.315Z,75.30
2023-05-21T23:48:57.682Z,75.34
2023-05-21T23:51:26.563Z,75.45
2023-05-21T23:53:55.368Z,75.24
2023-05-21T23:56:23.571Z,75.41
2023-05-21T23:58:53.072Z,75.69
